createdAt,value
2018-11-26T00:01:56.598Z,20.13
2018-11-26T00:04:25.133Z,19.70
2018-11-26T00:06:53.607Z,21.20
2018-11-26T00:09:22.042Z,16.97
2018-11-26T00:11:50.563Z,20.00
2018-11-26T00:14:19.184Z,23.97
2018-11-26T00:16:47.756Z,21.47
2018-11-26T00:19:16.309Z,19.80
2018-11-26T00:21:44.813Z,16.07
2018-11-26T00:24:13.326Z,17.20
2018-11-26T00:26:41.922Z,18.77
2018-11-26T00:29:10.453Z,22.60
2018-11-26T00:31:38.900Z,21.87
2018-11-26T00:34:07.481Z,22.40
2018-11-26T00:36:35.989Z,26.63
2018-11-26T00:39:06.317Z,19.67
2018-11-26T00:41:34.761Z,21.43
2018-11-26T00:44:03.313Z,19.60
2018-11-26T00:46:31.857Z,22.23
2018-11-26T00:49:00.308Z,20.80
2018-11-26T00:51:28.844Z,20.83
2018-11-26T00:53:57.272Z,22.50
2018-11-26T00:56:25.875Z,20.03
2018-11-26T00:58:54.391Z,25.30
2018-11-26T01:01:22.828Z,25.00
2018-11-26T01:03:51.623Z,21.87
2018-11-26T01:06:20.948Z,21.53
2018-11-26T01:08:48.586Z,22.30
2018-11-26T01:11:17.053Z,26.10
2018-11-26T01:13:45.565Z,21.57
2018-11-26T01:16:14.031Z,21.60
2018-11-26T01:18:42.517Z,22.47
2018-11-26T01:21:10.998Z,23.00
2018-11-26T01:23:39.511Z,26.03
2018-11-26T01:26:08.093Z,20.60
2018-11-26T01:28:36.532Z,19.97
2018-11-26T01:31:05.210Z,21.17
2018-11-26T01:33:33.673Z,24.10
2018-11-26T01:36:02.192Z,20.60
2018-11-26T01:38:30.653Z,22.23
2018-11-26T01:40:59.141Z,17.43
2018-11-26T01:43:27.625Z,21.07
2018-11-26T01:45:56.141Z,21.70
2018-11-26T01:48:24.560Z,24.10
2018-11-26T01:50:53.051Z,21.60
2018-11-26T01:53:21.542Z,21.67
2018-11-26T01:55:50.045Z,21.13
2018-11-26T01:58:18.510Z,23.80
2018-11-26T02:00:47.027Z,21.97
2018-11-26T02:03:15.513Z,24.83
2018-11-26T02:05:43.961Z,24.23
2018-11-26T02:08:12.478Z,22.83
2018-11-26T02:10:40.936Z,21.17
2018-11-26T02:13:09.398Z,17.10
2018-11-26T02:15:39.629Z,22.80
2018-11-26T02:18:08.877Z,22.30
2018-11-26T02:20:37.377Z,22.23
2018-11-26T02:23:06.233Z,20.80
2018-11-26T02:25:34.745Z,22.80
2018-11-26T02:29:06.566Z,19.53
2018-11-26T02:31:35.027Z,24.17
2018-11-26T02:34:03.595Z,21.23
2018-11-26T02:36:32.193Z,25.37
2018-11-26T02:39:00.709Z,22.47
2018-11-26T02:41:29.165Z,23.43
2018-11-26T02:43:57.631Z,24.13
2018-11-26T02:46:26.130Z,20.03
2018-11-26T02:48:54.604Z,22.47
2018-11-26T02:51:23.085Z,24.73
2018-11-26T02:53:51.640Z,23.17
2018-11-26T02:56:20.150Z,25.50
2018-11-26T02:58:48.614Z,23.10
2018-11-26T03:01:17.141Z,23.20
2018-11-26T03:03:45.585Z,23.30
2018-11-26T03:06:14.113Z,25.40
2018-11-26T03:08:42.553Z,19.57
2018-11-26T03:11:11.070Z,28.73
2018-11-26T03:13:39.501Z,23.90
2018-11-26T03:16:08.006Z,26.40
2018-11-26T03:18:36.496Z,21.33
2018-11-26T03:21:04.980Z,21.97
2018-11-26T03:23:33.450Z,23.53
2018-11-26T03:26:01.925Z,25.93
2018-11-26T03:28:30.418Z,23.30
2018-11-26T03:30:58.894Z,21.47
2018-11-26T03:33:27.395Z,23.57
2018-11-26T03:35:55.845Z,24.27
2018-11-26T03:38:48.765Z,27.73
2018-11-26T03:41:17.223Z,27.80
2018-11-26T03:43:45.713Z,26.33
2018-11-26T03:46:14.410Z,27.03
2018-11-26T03:48:42.873Z,25.23
2018-11-26T03:51:11.535Z,26.40
2018-11-26T03:53:40.005Z,25.50
2018-11-26T03:56:08.494Z,25.67
2018-11-26T03:58:36.974Z,23.87
2018-11-26T04:01:05.791Z,28.70
2018-11-26T04:03:34.241Z,24.43
2018-11-26T04:06:02.725Z,21.90
2018-11-26T04:08:31.215Z,29.00
2018-11-26T04:10:59.723Z,22.50
2018-11-26T04:13:28.176Z,24.40
2018-11-26T04:15:56.641Z,28.10
2018-11-26T04:18:25.133Z,22.93
2018-11-26T04:20:53.627Z,24.43
2018-11-26T04:23:22.131Z,26.27
2018-11-26T04:25:50.571Z,19.40
2018-11-26T04:28:19.094Z,21.90
2018-11-26T04:30:47.574Z,19.53
2018-11-26T04:33:16.044Z,18.50
2018-11-26T04:35:44.508Z,18.53
2018-11-26T04:38:12.985Z,20.13
2018-11-26T04:40:41.497Z,19.87
2018-11-26T04:43:09.955Z,25.13
2018-11-26T04:45:38.450Z,22.30
2018-11-26T04:48:06.935Z,19.87
2018-11-26T04:50:35.405Z,20.23
2018-11-26T04:53:03.911Z,17.87
2018-11-26T04:55:32.398Z,20.93
2018-11-26T04:58:01.002Z,19.33
2018-11-26T05:00:29.784Z,20.13
2018-11-26T05:02:58.209Z,20.30
2018-11-26T05:05:28.256Z,22.33
2018-11-26T05:07:56.337Z,21.00
2018-11-26T05:10:24.798Z,19.83
2018-11-26T05:12:53.268Z,24.10
2018-11-26T05:15:21.761Z,18.70
2018-11-26T05:17:50.271Z,25.07
2018-11-26T05:20:18.721Z,23.37
2018-11-26T05:22:47.218Z,21.83
2018-11-26T05:25:16.058Z,20.43
2018-11-26T05:27:44.991Z,21.80
2018-11-26T05:30:14.288Z,20.07
2018-11-26T05:32:43.173Z,26.83
2018-11-26T05:35:12.597Z,25.20
2018-11-26T05:37:41.066Z,23.77
2018-11-26T05:40:11.795Z,23.40
2018-11-26T05:42:40.514Z,22.17
2018-11-26T05:45:10.658Z,19.77
2018-11-26T05:47:39.140Z,26.23
2018-11-26T05:50:11.781Z,22.13
2018-11-26T05:52:40.876Z,19.77
2018-11-26T05:55:13.658Z,24.50
2018-11-26T05:57:42.161Z,18.80
2018-11-26T06:00:23.589Z,24.07
2018-11-26T06:02:52.124Z,24.37
2018-11-26T06:05:20.581Z,23.13
2018-11-26T06:07:49.053Z,23.90
2018-11-26T06:10:17.546Z,24.90
2018-11-26T06:12:46.137Z,25.00
2018-11-26T06:15:14.661Z,28.67
2018-11-26T06:17:43.111Z,25.17
2018-11-26T06:20:12.687Z,21.50
2018-11-26T06:22:42.819Z,26.47
2018-11-26T06:25:13.021Z,23.07
2018-11-26T06:27:41.521Z,23.53
2018-11-26T06:30:12.649Z,25.10
2018-11-26T06:32:42.274Z,22.63
2018-11-26T06:35:19.641Z,23.07
2018-11-26T06:37:48.330Z,25.50
2018-11-26T06:40:16.850Z,19.73
2018-11-26T06:42:45.337Z,25.73
2018-11-26T06:45:17.173Z,28.43
2018-11-26T06:47:45.652Z,26.87
2018-11-26T06:50:15.368Z,24.37
2018-11-26T06:52:44.120Z,26.03
2018-11-26T06:56:37.753Z,28.67
2018-11-26T06:59:06.220Z,29.20
2018-11-26T07:01:34.715Z,30.73
2018-11-26T07:04:03.182Z,27.50
2018-11-26T07:06:32.123Z,25.20
2018-11-26T07:09:00.545Z,25.27
2018-11-26T07:11:29.029Z,29.20
2018-11-26T07:13:57.514Z,29.17
2018-11-26T07:16:25.987Z,36.17
2018-11-26T07:18:54.497Z,29.67
2018-11-26T07:21:22.941Z,29.07
2018-11-26T07:23:51.434Z,27.30
2018-11-26T07:26:20.045Z,29.07
2018-11-26T07:28:48.477Z,32.90
2018-11-26T07:31:16.983Z,29.00
2018-11-26T07:33:45.472Z,27.13
2018-11-26T07:36:13.945Z,29.90
2018-11-26T07:38:42.439Z,27.10
2018-11-26T07:41:10.913Z,28.93
2018-11-26T07:43:39.371Z,26.87
2018-11-26T07:46:07.896Z,29.47
2018-11-26T07:48:36.349Z,34.67
2018-11-26T07:51:05.082Z,29.13
2018-11-26T07:53:33.537Z,27.03
2018-11-26T07:56:02.013Z,30.83
2018-11-26T07:58:30.494Z,37.20
2018-11-26T08:00:59.003Z,30.40
2018-11-26T08:03:27.448Z,29.90
2018-11-26T08:05:55.928Z,36.60
2018-11-26T08:08:24.425Z,31.00
2018-11-26T08:10:53.040Z,32.50
2018-11-26T08:13:21.469Z,32.03
2018-11-26T08:15:49.945Z,30.97
2018-11-26T08:18:18.449Z,39.57
2018-11-26T08:20:47.159Z,38.93
2018-11-26T08:23:15.661Z,37.80
2018-11-26T08:25:44.067Z,43.43
2018-11-26T08:28:12.614Z,37.37
2018-11-26T08:30:41.059Z,31.97
2018-11-26T08:33:09.572Z,32.13
2018-11-26T08:35:38.049Z,35.30
2018-11-26T08:38:07.498Z,34.70
2018-11-26T08:40:41.370Z,36.13
2018-11-26T08:43:15.333Z,37.37
2018-11-26T08:45:52.178Z,33.97
2018-11-26T08:48:25.920Z,34.30
2018-11-26T08:50:55.431Z,41.87
2018-11-26T08:53:24.218Z,37.60
2018-11-26T08:55:52.750Z,34.23
2018-11-26T08:58:21.180Z,35.17
2018-11-26T09:00:55.033Z,36.93
2018-11-26T09:03:23.548Z,32.67
2018-11-26T09:06:00.582Z,36.10
2018-11-26T09:08:30.105Z,34.07
2018-11-26T09:10:58.848Z,35.83
2018-11-26T09:13:27.330Z,33.97
2018-11-26T09:15:55.805Z,30.87
2018-11-26T09:18:24.285Z,31.63
2018-11-26T09:20:52.806Z,32.93
2018-11-26T09:23:21.283Z,35.27
2018-11-26T09:25:49.937Z,28.77
2018-11-26T09:28:18.422Z,32.10
2018-11-26T09:30:46.951Z,33.10
2018-11-26T09:33:15.447Z,31.23
2018-11-26T09:35:43.877Z,31.80
2018-11-26T09:38:13.132Z,31.87
2018-11-26T09:40:40.945Z,30.10
2018-11-26T09:43:09.442Z,30.80
2018-11-26T09:45:40.441Z,29.47
2018-11-26T09:48:06.448Z,25.87
2018-11-26T09:50:35.126Z,26.80
2018-11-26T09:53:03.566Z,30.33
2018-11-26T09:55:32.060Z,29.67
2018-11-26T09:58:00.550Z,25.60
2018-11-26T10:00:29.033Z,25.20
2018-11-26T10:02:57.586Z,34.63
2018-11-26T10:05:26.750Z,25.30
2018-11-26T10:07:55.187Z,27.57
2018-11-26T10:10:23.797Z,26.67
2018-11-26T10:12:52.261Z,22.90
2018-11-26T10:15:22.130Z,29.60
2018-11-26T10:17:50.886Z,28.10
2018-11-26T10:20:19.513Z,33.00
2018-11-26T10:22:48.706Z,28.23
2018-11-26T10:25:19.480Z,31.03
2018-11-26T10:27:48.014Z,29.37
2018-11-26T10:30:18.006Z,26.43
2018-11-26T10:32:47.387Z,25.47
2018-11-26T10:35:16.950Z,27.20
2018-11-26T10:37:45.652Z,28.57
2018-11-26T10:40:21.042Z,28.80
2018-11-26T10:42:49.612Z,26.77
2018-11-26T10:45:19.313Z,25.23
2018-11-26T10:47:47.903Z,29.23
2018-11-26T10:50:17.666Z,24.90
2018-11-26T10:52:55.128Z,27.57
2018-11-26T10:55:25.928Z,25.10
2018-11-26T10:57:54.399Z,29.63
2018-11-26T11:00:28.090Z,23.60
2018-11-26T11:02:57.295Z,24.40
2018-11-26T11:05:25.867Z,29.80
2018-11-26T11:07:54.344Z,24.67
2018-11-26T11:10:26.403Z,27.53
2018-11-26T11:12:54.894Z,36.47
2018-11-26T11:15:23.560Z,26.43
2018-11-26T11:17:52.117Z,25.90
2018-11-26T11:20:22.058Z,32.60
2018-11-26T11:22:50.760Z,31.23
2018-11-26T11:25:20.089Z,24.47
2018-11-26T11:27:48.972Z,26.30
2018-11-26T11:30:18.635Z,27.50
2018-11-26T11:32:47.238Z,33.80
2018-11-26T11:35:16.453Z,29.43
2018-11-26T11:37:46.350Z,27.50
2018-11-26T11:40:16.589Z,25.90
2018-11-26T11:42:45.159Z,35.00
2018-11-26T11:45:15.011Z,32.40
2018-11-26T11:47:43.715Z,27.13
2018-11-26T11:50:15.451Z,29.03
2018-11-26T11:52:44.007Z,59.63
2018-11-26T11:55:14.607Z,25.53
2018-11-26T11:57:43.083Z,26.20
2018-11-26T12:00:13.843Z,25.50
2018-11-26T12:02:43.094Z,28.73
2018-11-26T12:05:13.305Z,27.83
2018-11-26T12:07:41.705Z,29.90
2018-11-26T12:10:11.423Z,31.80
2018-11-26T12:12:40.019Z,25.70
2018-11-26T12:15:11.259Z,25.53
2018-11-26T12:17:40.011Z,32.40
2018-11-26T12:20:09.953Z,36.50
2018-11-26T12:22:38.536Z,27.47
2018-11-26T12:25:09.068Z,30.20
2018-11-26T12:27:37.591Z,32.60
2018-11-26T12:30:12.159Z,32.37
2018-11-26T12:32:40.632Z,33.60
2018-11-26T12:35:09.188Z,34.10
2018-11-26T12:37:37.703Z,28.67
2018-11-26T12:40:08.813Z,27.43
2018-11-26T12:42:37.339Z,29.53
2018-11-26T12:45:42.197Z,33.90
2018-11-26T12:48:10.763Z,31.80
2018-11-26T12:50:39.479Z,34.37
2018-11-26T12:53:07.999Z,59.30
2018-11-26T12:55:38.032Z,33.60
2018-11-26T12:58:07.705Z,28.90
2018-11-26T13:00:37.385Z,29.40
2018-11-26T13:03:08.627Z,32.23
2018-11-26T13:05:37.098Z,37.70
2018-11-26T13:08:05.833Z,35.47
2018-11-26T13:10:34.375Z,36.70
2018-11-26T13:13:02.914Z,36.70
2018-11-26T13:15:31.455Z,40.93
2018-11-26T13:18:00.091Z,43.53
2018-11-26T13:20:29.644Z,30.10
2018-11-26T13:22:58.556Z,34.67
2018-11-26T13:25:29.409Z,40.00
2018-11-26T13:27:59.490Z,34.63
2018-11-26T13:30:31.423Z,33.50
2018-11-26T13:33:01.330Z,34.53
2018-11-26T13:35:30.471Z,36.33
2018-11-26T13:38:00.366Z,40.40
2018-11-26T13:40:29.294Z,31.60
2018-11-26T13:42:58.123Z,37.23
2018-11-26T13:45:32.201Z,37.83
2018-11-26T13:48:00.903Z,30.40
2018-11-26T13:50:32.620Z,35.77
2018-11-26T13:53:01.633Z,32.80
2018-11-26T13:55:30.848Z,32.70
2018-11-26T13:57:59.861Z,31.20
2018-11-26T14:00:28.433Z,33.70
2018-11-26T14:02:57.275Z,35.57
2018-11-26T14:05:25.892Z,29.40
2018-11-26T14:07:54.506Z,30.70
2018-11-26T14:10:25.578Z,35.50
2018-11-26T14:13:00.810Z,32.43
2018-11-26T14:15:29.327Z,39.13
2018-11-26T14:17:57.929Z,41.03
2018-11-26T14:20:26.570Z,46.20
2018-11-26T14:22:55.150Z,42.20
2018-11-26T14:25:23.716Z,38.23
2018-11-26T14:27:52.228Z,30.43
2018-11-26T14:30:24.486Z,34.53
2018-11-26T14:32:53.642Z,32.17
2018-11-26T14:35:22.339Z,29.63
2018-11-26T14:37:53.109Z,34.63
2018-11-26T14:40:24.154Z,30.10
2018-11-26T14:42:52.675Z,30.90
2018-11-26T14:45:21.273Z,36.97
2018-11-26T14:47:50.389Z,36.47
2018-11-26T14:50:18.766Z,36.00
2018-11-26T14:52:48.739Z,36.00
2018-11-26T14:55:24.839Z,37.75
2018-11-26T14:57:53.550Z,36.60
2018-11-26T15:00:22.387Z,31.73
2018-11-26T15:02:51.124Z,34.20
2018-11-26T15:06:22.842Z,32.95
2018-11-26T15:08:51.630Z,34.37
2018-11-26T15:11:20.213Z,35.40
2018-11-26T15:13:48.834Z,33.05
2018-11-26T15:16:17.411Z,32.37
2018-11-26T15:18:46.092Z,27.53
2018-11-26T15:21:15.735Z,34.57
2018-11-26T15:23:44.361Z,31.68
2018-11-26T15:26:13.025Z,34.37
2018-11-26T15:28:41.546Z,32.47
2018-11-26T15:31:10.082Z,34.63
2018-11-26T15:33:38.594Z,40.23
2018-11-26T15:36:07.275Z,41.20
2018-11-26T15:38:35.866Z,35.33
2018-11-26T15:41:04.709Z,34.03
2018-11-26T15:43:33.218Z,36.00
2018-11-26T15:46:01.859Z,38.55
2018-11-26T15:48:30.423Z,39.20
2018-11-26T15:50:59.005Z,39.63
2018-11-26T15:53:27.550Z,40.97
2018-11-26T15:55:56.171Z,33.20
2018-11-26T15:58:24.747Z,37.20
2018-11-26T16:00:53.333Z,41.70
2018-11-26T16:03:21.935Z,38.43
2018-11-26T16:05:50.480Z,37.45
2018-11-26T16:08:18.969Z,34.95
2018-11-26T16:10:47.423Z,39.17
2018-11-26T16:13:16.508Z,38.37
2018-11-26T16:15:45.715Z,38.63
2018-11-26T16:18:19.946Z,51.30
2018-11-26T16:20:49.178Z,47.40
2018-11-26T16:23:17.700Z,34.53
2018-11-26T16:25:47.495Z,37.50
2018-11-26T16:28:20.745Z,41.03
2018-11-26T16:30:49.278Z,40.70
2018-11-26T16:33:17.838Z,43.50
2018-11-26T16:35:46.464Z,43.20
2018-11-26T16:38:14.956Z,45.23
2018-11-26T16:40:43.474Z,37.00
2018-11-26T16:43:12.026Z,41.33
2018-11-26T16:45:40.518Z,39.33
2018-11-26T16:48:08.983Z,42.63
2018-11-26T16:50:38.179Z,38.60
2018-11-26T16:53:07.575Z,42.07
2018-11-26T17:02:35.980Z,44.47
2018-11-26T17:05:04.998Z,43.50
2018-11-26T17:07:33.507Z,46.10
2018-11-26T17:10:01.995Z,56.17
2018-11-26T17:12:30.838Z,44.90
2018-11-26T17:14:59.614Z,53.10
2018-11-26T17:17:29.141Z,51.77
2018-11-26T17:19:57.659Z,52.00
2018-11-26T17:22:26.135Z,43.30
2018-11-26T17:24:54.629Z,48.63
2018-11-26T17:27:23.229Z,46.50
2018-11-26T17:29:51.769Z,54.70
2018-11-26T17:32:20.230Z,56.23
2018-11-26T17:34:48.908Z,47.07
2018-11-26T17:37:17.422Z,52.40
2018-11-26T17:39:45.905Z,49.20
2018-11-26T17:42:14.507Z,52.53
2018-11-26T17:44:43.031Z,50.27
2018-11-26T17:47:11.542Z,54.53
2018-11-26T17:49:40.109Z,50.33
2018-11-26T17:52:08.605Z,46.90
2018-11-26T17:54:37.135Z,52.07
2018-11-26T17:57:06.368Z,57.63
2018-11-26T17:59:34.871Z,54.00
2018-11-26T18:02:03.863Z,47.00
2018-11-26T18:04:32.574Z,47.17
2018-11-26T18:07:01.115Z,58.90
2018-11-26T18:09:29.738Z,46.50
2018-11-26T18:11:58.235Z,57.20
2018-11-26T18:14:26.671Z,61.17
2018-11-26T18:16:55.197Z,54.47
2018-11-26T18:19:23.679Z,53.27
2018-11-26T18:21:52.164Z,58.30
2018-11-26T18:24:20.759Z,50.93
2018-11-26T18:26:50.271Z,59.70
2018-11-26T18:29:18.814Z,54.17
2018-11-26T18:31:48.160Z,61.80
2018-11-26T18:34:16.845Z,54.07
2018-11-26T18:36:45.888Z,58.60
2018-11-26T18:39:14.404Z,63.63
2018-11-26T18:41:42.884Z,53.67
2018-11-26T18:44:11.406Z,57.33
2018-11-26T18:46:40.008Z,52.33
2018-11-26T18:49:09.582Z,53.90
2018-11-26T18:51:38.193Z,56.40
2018-11-26T18:54:06.770Z,54.35
2018-11-26T18:56:35.295Z,59.93
2018-11-26T18:59:03.955Z,68.43
2018-11-26T19:01:32.706Z,61.87
2018-11-26T19:04:01.283Z,54.37
2018-11-26T19:06:29.843Z,62.90
2018-11-26T19:08:58.379Z,67.00
2018-11-26T19:11:26.978Z,52.63
2018-11-26T19:13:59.536Z,59.70
2018-11-26T19:16:30.575Z,68.77
2018-11-26T19:19:00.142Z,67.50
2018-11-26T19:21:28.671Z,61.10
2018-11-26T19:23:57.225Z,66.47
2018-11-26T19:26:25.892Z,76.03
2018-11-26T19:28:54.509Z,66.53
2018-11-26T19:31:23.061Z,65.73
2018-11-26T19:33:52.014Z,63.23
2018-11-26T19:36:23.717Z,58.33
2018-11-26T19:38:52.287Z,62.43
2018-11-26T19:41:20.787Z,68.20
2018-11-26T19:43:49.331Z,68.43
2018-11-26T19:46:17.819Z,72.73
2018-11-26T19:48:46.287Z,69.10
2018-11-26T19:51:14.805Z,60.27
2018-11-26T19:53:43.246Z,65.90
2018-11-26T19:56:11.747Z,67.97
2018-11-26T19:58:40.245Z,66.03
2018-11-26T20:01:08.743Z,60.47
2018-11-26T20:03:40.859Z,60.80
2018-11-26T20:06:18.907Z,62.77
2018-11-26T20:08:49.042Z,57.00
2018-11-26T20:11:17.604Z,62.93
2018-11-26T20:13:46.097Z,65.60
2018-11-26T20:16:20.659Z,58.30
2018-11-26T20:18:49.162Z,54.70
2018-11-26T20:21:17.686Z,58.60
2018-11-26T20:23:46.116Z,55.93
2018-11-26T20:26:14.712Z,54.20
2018-11-26T20:28:43.371Z,55.43
2018-11-26T20:31:12.176Z,53.53
2018-11-26T20:33:40.698Z,54.13
2018-11-26T20:36:11.046Z,52.80
2018-11-26T20:38:39.718Z,59.00
2018-11-26T20:41:09.387Z,59.40
2018-11-26T20:43:38.140Z,56.03
2018-11-26T20:46:07.895Z,59.17
2018-11-26T20:48:36.499Z,53.33
2018-11-26T20:51:06.090Z,58.50
2018-11-26T20:53:34.653Z,52.87
2018-11-26T20:56:15.720Z,63.57
2018-11-26T20:58:45.393Z,65.70
2018-11-26T21:01:14.096Z,59.80
2018-11-26T21:03:43.158Z,57.37
2018-11-26T21:06:11.853Z,64.37
2018-11-26T21:08:40.299Z,55.23
2018-11-26T21:11:08.878Z,55.43
2018-11-26T21:13:38.735Z,50.83
2018-11-26T21:16:07.884Z,55.00
2018-11-26T21:18:37.475Z,55.93
2018-11-26T21:21:07.311Z,51.23
2018-11-26T21:23:37.843Z,50.60
2018-11-26T21:26:08.100Z,57.77
2018-11-26T21:28:36.616Z,52.77
2018-11-26T21:31:05.511Z,56.00
2018-11-26T21:33:34.668Z,56.63
2018-11-26T21:36:03.499Z,52.17
2018-11-26T21:38:34.192Z,51.17
2018-11-26T21:41:02.895Z,56.63
2018-11-26T21:43:31.417Z,57.10
2018-11-26T21:46:01.310Z,60.70
2018-11-26T21:48:30.112Z,63.60
2018-11-26T21:50:58.491Z,80.97
2018-11-26T21:53:27.107Z,68.57
2018-11-26T21:55:55.683Z,52.30
2018-11-26T21:58:24.202Z,52.97
2018-11-26T22:00:54.613Z,62.30
2018-11-26T22:03:23.190Z,56.10
2018-11-26T22:05:51.695Z,52.63
2018-11-26T22:08:20.305Z,58.67
2018-11-26T22:10:48.916Z,60.70
2018-11-26T22:13:20.958Z,62.17
2018-11-26T22:15:49.667Z,63.47
2018-11-26T22:18:18.240Z,57.20
2018-11-26T22:20:46.767Z,68.87
2018-11-26T22:23:15.434Z,57.17
2018-11-26T22:25:44.133Z,57.33
2018-11-26T22:28:12.853Z,58.73
2018-11-26T22:30:41.754Z,58.10
2018-11-26T22:33:10.475Z,60.03
2018-11-26T22:35:39.034Z,60.03
2018-11-26T22:38:07.998Z,57.27
2018-11-26T22:40:36.723Z,61.07
2018-11-26T22:43:05.774Z,57.97
2018-11-26T22:45:35.034Z,61.67
2018-11-26T22:48:12.764Z,53.90
2018-11-26T22:50:42.674Z,53.77
2018-11-26T22:53:11.345Z,52.33
2018-11-26T22:55:40.179Z,51.77
2018-11-26T22:58:11.174Z,65.57
2018-11-26T23:00:47.303Z,57.37
2018-11-26T23:03:18.475Z,55.33
2018-11-26T23:05:47.039Z,53.20
2018-11-26T23:08:15.569Z,58.17
2018-11-26T23:10:44.040Z,64.20
2018-11-26T23:13:12.534Z,52.60
2018-11-26T23:15:42.110Z,51.57
2018-11-26T23:18:10.801Z,56.63
2018-11-26T23:20:39.384Z,54.73
2018-11-26T23:23:07.898Z,57.23
2018-11-26T23:25:36.418Z,56.60
2018-11-26T23:28:05.248Z,53.07
2018-11-26T23:30:34.042Z,59.00
2018-11-26T23:33:03.885Z,55.20
2018-11-26T23:35:32.382Z,53.63
2018-11-26T23:38:00.882Z,59.93
2018-11-26T23:40:29.417Z,55.73
2018-11-26T23:42:57.977Z,56.90
2018-11-26T23:45:27.272Z,49.60
2018-11-26T23:47:55.880Z,49.37
2018-11-26T23:50:24.387Z,47.77
2018-11-26T23:52:52.872Z,49.10
2018-11-26T23:55:22.565Z,49.10
2018-11-26T23:57:51.043Z,58.33
